SJX1138 EGKK-EIDW
Flight info
| Callsign | SJX1138 |
|---|---|
| Flight time | 0h 58m |
| Altitude | 24000 |
| Route | IMVUR N63 VOUGA N14 NUBRI/N0461F340 N14 BIBPE DCT OKTAD DCT MEDOG DCT KRAGY DCT PEMOB M17 VATRY VATRY4L |
| Aircraft | A359/H-SDE2E3GHIJ3J4J5LM1ORWXY/LB1D1 |
Departure
| Time | 2026-05-04 12:05 |
|---|---|
| Airport | London Gatwick Airport (EGKK) |
Arrival
| Time | 2026-05-04 13:04 |
|---|---|
| Airport | Dublin Airport (EIDW) |
| Time | Latitude | Longitude | Altitude | Speed | Heading |
|---|---|---|---|---|---|
| 2026-05-04 11:29 | 51.15543 | -0.17181 | 218 ft | 0 kts | 135° |
| 2026-05-04 11:44 | 51.15557 | -0.17204 | 216 ft | 4 kts | 135° |
| 2026-05-04 11:44 | 51.15575 | -0.17233 | 215 ft | 2 kts | 135° |
| 2026-05-04 11:45 | 51.15592 | -0.17254 | 218 ft | 4 kts | 173° |
| 2026-05-04 11:45 | 51.15612 | -0.17245 | 223 ft | 4 kts | 243° |
| 2026-05-04 11:45 | 51.15619 | -0.17206 | 216 ft | 4 kts | 256° |
| 2026-05-04 11:45 | 51.15623 | -0.17184 | 216 ft | 0 kts | 256° |
| 2026-05-04 11:53 | 51.15619 | -0.17209 | 218 ft | 5 kts | 256° |
| 2026-05-04 11:55 | 51.15513 | -0.17698 | 218 ft | 9 kts | 257° |
| 2026-05-04 11:55 | 51.15498 | -0.17805 | 213 ft | 11 kts | 258° |
| 2026-05-04 11:56 | 51.15479 | -0.17943 | 216 ft | 14 kts | 258° |
| 2026-05-04 11:56 | 51.15458 | -0.18098 | 218 ft | 11 kts | 257° |
| 2026-05-04 11:56 | 51.15441 | -0.18210 | 214 ft | 10 kts | 257° |
| 2026-05-04 11:56 | 51.15393 | -0.18268 | 218 ft | 10 kts | 188° |
| 2026-05-04 11:57 | 51.15317 | -0.18250 | 220 ft | 12 kts | 168° |
| 2026-05-04 11:57 | 51.15231 | -0.18224 | 217 ft | 10 kts | 176° |
| 2026-05-04 11:57 | 51.15198 | -0.18267 | 218 ft | 7 kts | 245° |
| 2026-05-04 11:57 | 51.15183 | -0.18356 | 219 ft | 10 kts | 256° |
| 2026-05-04 11:58 | 51.15164 | -0.18478 | 221 ft | 13 kts | 258° |
| 2026-05-04 11:58 | 51.15144 | -0.18628 | 218 ft | 15 kts | 257° |
| 2026-05-04 11:58 | 51.15119 | -0.18809 | 217 ft | 18 kts | 257° |
| 2026-05-04 11:58 | 51.15090 | -0.19014 | 220 ft | 20 kts | 257° |
| 2026-05-04 11:59 | 51.15066 | -0.19190 | 212 ft | 10 kts | 257° |
| 2026-05-04 11:59 | 51.15018 | -0.19262 | 220 ft | 10 kts | 189° |
| 2026-05-04 11:59 | 51.14966 | -0.19314 | 221 ft | 9 kts | 234° |
| 2026-05-04 11:59 | 51.14943 | -0.19427 | 221 ft | 12 kts | 256° |
| 2026-05-04 12:00 | 51.14920 | -0.19578 | 219 ft | 15 kts | 257° |
| 2026-05-04 12:00 | 51.14896 | -0.19753 | 221 ft | 17 kts | 258° |
| 2026-05-04 12:00 | 51.14868 | -0.19961 | 218 ft | 21 kts | 258° |
| 2026-05-04 12:00 | 51.14835 | -0.20204 | 214 ft | 24 kts | 258° |
| 2026-05-04 12:01 | 51.14799 | -0.20474 | 218 ft | 25 kts | 258° |
| 2026-05-04 12:01 | 51.14761 | -0.20738 | 215 ft | 20 kts | 257° |
| 2026-05-04 12:02 | 51.14645 | -0.21325 | 214 ft | 0 kts | 185° |
| 2026-05-04 12:03 | 51.14642 | -0.21325 | 214 ft | 3 kts | 184° |
| 2026-05-04 12:03 | 51.14595 | -0.21316 | 217 ft | 11 kts | 165° |
| 2026-05-04 12:03 | 51.14524 | -0.21198 | 217 ft | 18 kts | 102° |
| 2026-05-04 12:04 | 51.14531 | -0.21094 | 221 ft | 0 kts | 77° |
| 2026-05-04 12:04 | 51.14532 | -0.21086 | 219 ft | 5 kts | 77° |
| 2026-05-04 12:05 | 51.14587 | -0.20696 | 218 ft | 75 kts | 78° |
| 2026-05-04 12:05 | 51.14749 | -0.19509 | 223 ft | 142 kts | 77° |
| 2026-05-04 12:05 | 51.14985 | -0.17759 | 584 ft | 171 kts | 78° |
| 2026-05-04 12:05 | 51.15229 | -0.15907 | 1454 ft | 170 kts | 78° |
| 2026-05-04 12:06 | 51.15493 | -0.13933 | 1989 ft | 198 kts | 78° |
| 2026-05-04 12:06 | 51.15812 | -0.11597 | 2316 ft | 231 kts | 78° |
| 2026-05-04 12:06 | 51.16169 | -0.08979 | 2838 ft | 251 kts | 78° |
| 2026-05-04 12:06 | 51.16546 | -0.06212 | 3460 ft | 260 kts | 78° |
| 2026-05-04 12:07 | 51.16935 | -0.03398 | 4423 ft | 260 kts | 78° |
| 2026-05-04 12:07 | 51.17625 | -0.00721 | 5304 ft | 266 kts | 55° |
| 2026-05-04 12:07 | 51.19017 | 0.01232 | 6127 ft | 272 kts | 27° |
| 2026-05-04 12:07 | 51.20844 | 0.02012 | 6799 ft | 276 kts | 1° |
| 2026-05-04 12:08 | 51.22714 | 0.01399 | 7462 ft | 277 kts | 333° |
| 2026-05-04 12:08 | 51.24216 | -0.00498 | 8222 ft | 278 kts | 307° |
| 2026-05-04 12:08 | 51.25030 | -0.03204 | 8917 ft | 278 kts | 281° |
| 2026-05-04 12:08 | 51.25274 | -0.06244 | 9636 ft | 280 kts | 275° |
| 2026-05-04 12:09 | 51.25540 | -0.09347 | 10286 ft | 285 kts | 277° |
| 2026-05-04 12:09 | 51.25861 | -0.12561 | 10601 ft | 302 kts | 277° |
| 2026-05-04 12:09 | 51.26194 | -0.15959 | 10853 ft | 319 kts | 277° |
| 2026-05-04 12:09 | 51.26516 | -0.19525 | 11215 ft | 330 kts | 276° |
| 2026-05-04 12:10 | 51.26819 | -0.23182 | 11772 ft | 334 kts | 276° |
| 2026-05-04 12:10 | 51.27105 | -0.26868 | 12368 ft | 337 kts | 275° |
| 2026-05-04 12:10 | 51.27383 | -0.30610 | 12927 ft | 341 kts | 275° |
| 2026-05-04 12:10 | 51.27658 | -0.34401 | 13513 ft | 344 kts | 275° |
| 2026-05-04 12:11 | 51.27932 | -0.38211 | 14039 ft | 348 kts | 275° |
| 2026-05-04 12:11 | 51.28209 | -0.42064 | 14546 ft | 351 kts | 275° |
| 2026-05-04 12:11 | 51.28488 | -0.45956 | 15044 ft | 355 kts | 275° |
| 2026-05-04 12:11 | 51.28771 | -0.49897 | 15566 ft | 358 kts | 275° |
| 2026-05-04 12:12 | 51.29055 | -0.53859 | 16084 ft | 361 kts | 275° |
| 2026-05-04 12:12 | 51.29340 | -0.57861 | 16619 ft | 364 kts | 274° |
| 2026-05-04 12:12 | 51.29627 | -0.61907 | 17148 ft | 367 kts | 274° |
| 2026-05-04 12:12 | 51.29914 | -0.65974 | 17674 ft | 371 kts | 274° |
| 2026-05-04 12:13 | 51.30203 | -0.70081 | 18180 ft | 374 kts | 274° |
| 2026-05-04 12:14 | 51.32226 | -0.99504 | 21545 ft | 387 kts | 274° |
| 2026-05-04 12:15 | 51.32515 | -1.03796 | 21993 ft | 389 kts | 274° |
| 2026-05-04 12:15 | 51.32803 | -1.08107 | 22448 ft | 391 kts | 274° |
| 2026-05-04 12:15 | 51.33097 | -1.12399 | 22864 ft | 394 kts | 275° |
| 2026-05-04 12:15 | 51.33712 | -1.16695 | 23244 ft | 400 kts | 287° |
| 2026-05-04 12:16 | 51.34952 | -1.20718 | 23624 ft | 407 kts | 302° |
| 2026-05-04 12:16 | 51.36846 | -1.24107 | 23934 ft | 412 kts | 318° |
| 2026-05-04 12:16 | 51.39186 | -1.26675 | 24018 ft | 402 kts | 329° |
| 2026-05-04 12:16 | 51.41673 | -1.28551 | 24024 ft | 391 kts | 336° |
| 2026-05-04 12:17 | 51.44214 | -1.30067 | 24026 ft | 390 kts | 339° |
| 2026-05-04 12:17 | 51.46789 | -1.31459 | 24023 ft | 391 kts | 340° |
| 2026-05-04 12:17 | 51.49365 | -1.32841 | 24022 ft | 391 kts | 340° |
| 2026-05-04 12:17 | 51.51933 | -1.34264 | 24022 ft | 391 kts | 339° |
| 2026-05-04 12:18 | 51.54490 | -1.35728 | 24023 ft | 390 kts | 338° |
| 2026-05-04 12:18 | 51.57038 | -1.37261 | 24019 ft | 390 kts | 336° |
| 2026-05-04 12:18 | 51.59407 | -1.39339 | 24023 ft | 388 kts | 322° |
| 2026-05-04 12:18 | 51.61379 | -1.42250 | 24045 ft | 384 kts | 307° |
| 2026-05-04 12:19 | 51.62907 | -1.45762 | 24054 ft | 382 kts | 300° |
| 2026-05-04 12:19 | 51.64254 | -1.49457 | 24047 ft | 384 kts | 297° |
| 2026-05-04 12:19 | 51.65516 | -1.53255 | 24047 ft | 385 kts | 295° |
| 2026-05-04 12:19 | 51.66744 | -1.57083 | 24048 ft | 385 kts | 295° |
| 2026-05-04 12:20 | 51.67970 | -1.60926 | 24046 ft | 385 kts | 295° |
| 2026-05-04 12:20 | 51.69183 | -1.64713 | 24047 ft | 385 kts | 295° |
| 2026-05-04 12:20 | 51.70167 | -1.68708 | 24036 ft | 383 kts | 283° |
| 2026-05-04 12:20 | 51.70709 | -1.72884 | 24035 ft | 381 kts | 277° |
| 2026-05-04 12:21 | 51.71107 | -1.77105 | 24035 ft | 381 kts | 275° |
| 2026-05-04 12:21 | 51.71434 | -1.81342 | 24035 ft | 380 kts | 274° |
| 2026-05-04 12:21 | 51.71820 | -1.85551 | 24039 ft | 381 kts | 279° |
| 2026-05-04 12:21 | 51.72353 | -1.89741 | 24043 ft | 382 kts | 280° |
| 2026-05-04 12:22 | 51.72931 | -1.93927 | 24053 ft | 382 kts | 281° |
| 2026-05-04 12:22 | 51.73536 | -1.98100 | 24050 ft | 383 kts | 281° |
| 2026-05-04 12:22 | 51.74158 | -2.02294 | 24051 ft | 385 kts | 282° |
| 2026-05-04 12:22 | 51.74785 | -2.06496 | 24038 ft | 385 kts | 282° |
| 2026-05-04 12:23 | 51.75414 | -2.10708 | 24054 ft | 385 kts | 282° |
| 2026-05-04 12:23 | 51.76037 | -2.14910 | 24048 ft | 385 kts | 281° |
| 2026-05-04 12:23 | 51.76657 | -2.19118 | 24054 ft | 385 kts | 281° |
| 2026-05-04 12:23 | 51.77274 | -2.23323 | 24042 ft | 385 kts | 281° |
| 2026-05-04 12:24 | 51.77887 | -2.27523 | 24042 ft | 385 kts | 281° |
| 2026-05-04 12:24 | 51.78499 | -2.31739 | 24045 ft | 385 kts | 281° |
| 2026-05-04 12:24 | 51.79109 | -2.35946 | 24047 ft | 384 kts | 281° |
| 2026-05-04 12:24 | 51.79717 | -2.40145 | 24030 ft | 383 kts | 281° |
| 2026-05-04 12:25 | 51.80320 | -2.44321 | 24048 ft | 382 kts | 281° |
| 2026-05-04 12:25 | 51.80914 | -2.48453 | 24039 ft | 382 kts | 281° |
| 2026-05-04 12:25 | 51.81516 | -2.52641 | 24035 ft | 382 kts | 281° |
| 2026-05-04 12:25 | 51.82115 | -2.56824 | 24038 ft | 382 kts | 281° |
| 2026-05-04 12:26 | 51.82700 | -2.61007 | 24034 ft | 382 kts | 281° |
| 2026-05-04 12:26 | 51.83269 | -2.65214 | 24044 ft | 382 kts | 280° |
| 2026-05-04 12:26 | 51.83828 | -2.69411 | 24039 ft | 382 kts | 280° |
| 2026-05-04 12:26 | 51.84385 | -2.73603 | 24033 ft | 382 kts | 280° |
| 2026-05-04 12:27 | 51.84944 | -2.77805 | 24033 ft | 382 kts | 280° |
| 2026-05-04 12:27 | 51.85505 | -2.82005 | 24044 ft | 382 kts | 280° |
| 2026-05-04 12:27 | 51.86068 | -2.86212 | 24043 ft | 382 kts | 280° |
| 2026-05-04 12:27 | 51.86628 | -2.90407 | 24049 ft | 382 kts | 280° |
| 2026-05-04 12:28 | 51.87190 | -2.94615 | 24048 ft | 382 kts | 280° |
| 2026-05-04 12:28 | 51.87749 | -2.98827 | 24045 ft | 383 kts | 280° |
| 2026-05-04 12:28 | 51.88118 | -3.01605 | 24044 ft | 383 kts | 280° |
| 2026-05-04 12:28 | 51.88857 | -3.07198 | 24050 ft | 383 kts | 280° |
| 2026-05-04 12:29 | 51.89411 | -3.11408 | 24046 ft | 383 kts | 280° |
| 2026-05-04 12:29 | 51.89966 | -3.15634 | 24043 ft | 383 kts | 280° |
| 2026-05-04 12:29 | 51.90518 | -3.19856 | 24042 ft | 383 kts | 280° |
| 2026-05-04 12:29 | 51.91068 | -3.24075 | 24038 ft | 383 kts | 280° |
| 2026-05-04 12:30 | 51.91431 | -3.26869 | 24038 ft | 383 kts | 280° |
| 2026-05-04 12:30 | 51.91987 | -3.31151 | 24039 ft | 383 kts | 280° |
| 2026-05-04 12:30 | 51.92526 | -3.35317 | 24046 ft | 383 kts | 280° |
| 2026-05-04 12:30 | 51.93076 | -3.39586 | 24033 ft | 383 kts | 280° |
| 2026-05-04 12:31 | 51.93613 | -3.43757 | 24040 ft | 383 kts | 280° |
| 2026-05-04 12:31 | 51.94164 | -3.48049 | 24039 ft | 384 kts | 280° |
| 2026-05-04 12:31 | 51.94700 | -3.52238 | 24038 ft | 385 kts | 280° |
| 2026-05-04 12:31 | 51.95243 | -3.56492 | 24037 ft | 385 kts | 280° |
| 2026-05-04 12:32 | 51.95787 | -3.60742 | 24036 ft | 385 kts | 280° |
| 2026-05-04 12:32 | 51.96863 | -3.69250 | 24036 ft | 385 kts | 280° |
| 2026-05-04 12:32 | 51.97396 | -3.73503 | 24033 ft | 385 kts | 280° |
| 2026-05-04 12:33 | 51.97871 | -3.77299 | 24034 ft | 385 kts | 280° |
| 2026-05-04 12:33 | 51.98405 | -3.81575 | 24029 ft | 385 kts | 280° |
| 2026-05-04 12:33 | 51.98935 | -3.85835 | 24034 ft | 386 kts | 281° |
| 2026-05-04 12:33 | 51.99466 | -3.90104 | 24040 ft | 387 kts | 281° |
| 2026-05-04 12:34 | 51.99998 | -3.94401 | 24036 ft | 389 kts | 281° |
| 2026-05-04 12:34 | 52.00530 | -3.98706 | 24032 ft | 391 kts | 281° |
| 2026-05-04 12:34 | 52.01065 | -4.03040 | 24030 ft | 392 kts | 281° |
| 2026-05-04 12:34 | 52.01645 | -4.07358 | 24028 ft | 392 kts | 286° |
| 2026-05-04 12:35 | 52.02633 | -4.11463 | 24038 ft | 391 kts | 298° |
| 2026-05-04 12:35 | 52.03982 | -4.15290 | 24034 ft | 390 kts | 302° |
| 2026-05-04 12:35 | 52.05414 | -4.19035 | 24035 ft | 390 kts | 303° |
| 2026-05-04 12:35 | 52.06861 | -4.22763 | 24034 ft | 390 kts | 303° |
| 2026-05-04 12:36 | 52.08314 | -4.26491 | 24036 ft | 390 kts | 303° |
| 2026-05-04 12:36 | 52.09766 | -4.30218 | 24035 ft | 390 kts | 303° |
| 2026-05-04 12:36 | 52.11219 | -4.33945 | 24043 ft | 390 kts | 303° |
| 2026-05-04 12:36 | 52.12670 | -4.37672 | 24041 ft | 390 kts | 303° |
| 2026-05-04 12:37 | 52.14121 | -4.41402 | 24042 ft | 390 kts | 303° |
| 2026-05-04 12:37 | 52.15569 | -4.45131 | 24046 ft | 390 kts | 304° |
| 2026-05-04 12:37 | 52.17024 | -4.48883 | 24041 ft | 392 kts | 304° |
| 2026-05-04 12:37 | 52.18479 | -4.52637 | 24043 ft | 392 kts | 304° |
| 2026-05-04 12:38 | 52.19933 | -4.56396 | 24035 ft | 392 kts | 305° |
| 2026-05-04 12:38 | 52.21369 | -4.60115 | 24045 ft | 393 kts | 305° |
| 2026-05-04 12:38 | 52.22828 | -4.63896 | 24050 ft | 394 kts | 305° |
| 2026-05-04 12:38 | 52.24283 | -4.67673 | 24046 ft | 394 kts | 305° |
| 2026-05-04 12:39 | 52.25741 | -4.71464 | 24047 ft | 394 kts | 305° |
| 2026-05-04 12:39 | 52.27197 | -4.75257 | 24049 ft | 394 kts | 305° |
| 2026-05-04 12:39 | 52.28649 | -4.79047 | 24055 ft | 394 kts | 305° |
| 2026-05-04 12:39 | 52.30104 | -4.82847 | 24055 ft | 394 kts | 305° |
| 2026-05-04 12:40 | 52.31556 | -4.86645 | 24053 ft | 394 kts | 305° |
| 2026-05-04 12:40 | 52.33005 | -4.90443 | 24052 ft | 394 kts | 305° |
| 2026-05-04 12:40 | 52.34454 | -4.94246 | 24055 ft | 394 kts | 305° |
| 2026-05-04 12:40 | 52.35903 | -4.98053 | 24050 ft | 394 kts | 305° |
| 2026-05-04 12:41 | 52.37348 | -5.01858 | 24061 ft | 394 kts | 306° |
| 2026-05-04 12:41 | 52.38798 | -5.05679 | 24060 ft | 395 kts | 306° |
| 2026-05-04 12:41 | 52.40243 | -5.09493 | 24062 ft | 395 kts | 306° |
| 2026-05-04 12:41 | 52.41690 | -5.13319 | 24053 ft | 395 kts | 306° |
| 2026-05-04 12:42 | 52.43135 | -5.17145 | 24065 ft | 394 kts | 306° |
| 2026-05-04 12:42 | 52.44578 | -5.20971 | 24048 ft | 394 kts | 306° |
| 2026-05-04 12:42 | 52.46017 | -5.24794 | 24071 ft | 394 kts | 306° |
| 2026-05-04 12:42 | 52.47455 | -5.28617 | 24072 ft | 394 kts | 306° |
| 2026-05-04 12:43 | 52.48893 | -5.32448 | 24057 ft | 394 kts | 306° |
| 2026-05-04 12:43 | 52.50331 | -5.36284 | 24056 ft | 394 kts | 306° |
| 2026-05-04 12:43 | 52.51764 | -5.40113 | 24077 ft | 394 kts | 306° |
| 2026-05-04 12:43 | 52.53198 | -5.43943 | 24062 ft | 394 kts | 306° |
| 2026-05-04 12:44 | 52.54819 | -5.47542 | 24064 ft | 388 kts | 318° |
| 2026-05-04 12:44 | 52.56886 | -5.50282 | 24066 ft | 378 kts | 335° |
| 2026-05-04 12:44 | 52.59274 | -5.51944 | 24061 ft | 371 kts | 346° |
| 2026-05-04 12:44 | 52.61732 | -5.53243 | 24065 ft | 371 kts | 347° |
| 2026-05-04 12:45 | 52.64199 | -5.54501 | 24062 ft | 371 kts | 347° |
| 2026-05-04 12:45 | 52.66659 | -5.55759 | 23980 ft | 367 kts | 347° |
| 2026-05-04 12:45 | 52.69098 | -5.57009 | 23247 ft | 371 kts | 347° |
| 2026-05-04 12:45 | 52.71601 | -5.58291 | 22228 ft | 381 kts | 346° |
| 2026-05-04 12:46 | 52.74134 | -5.59591 | 21240 ft | 391 kts | 346° |
| 2026-05-04 12:46 | 52.76781 | -5.60957 | 20359 ft | 396 kts | 345° |
| 2026-05-04 12:46 | 52.79382 | -5.62303 | 19715 ft | 396 kts | 345° |
| 2026-05-04 12:46 | 52.81992 | -5.63657 | 19170 ft | 392 kts | 345° |
| 2026-05-04 12:47 | 52.84585 | -5.65003 | 18646 ft | 388 kts | 345° |
| 2026-05-04 12:47 | 52.87148 | -5.66334 | 18090 ft | 385 kts | 344° |
| 2026-05-04 12:47 | 52.89684 | -5.67651 | 17547 ft | 380 kts | 343° |
| 2026-05-04 12:47 | 52.92189 | -5.68955 | 17031 ft | 374 kts | 344° |
| 2026-05-04 12:48 | 52.94659 | -5.70242 | 16523 ft | 369 kts | 344° |
| 2026-05-04 12:48 | 52.97093 | -5.71510 | 16021 ft | 365 kts | 344° |
| 2026-05-04 12:48 | 52.99499 | -5.72766 | 15523 ft | 360 kts | 343° |
| 2026-05-04 12:48 | 53.01873 | -5.74006 | 15031 ft | 356 kts | 343° |
| 2026-05-04 12:49 | 53.04225 | -5.75237 | 14534 ft | 352 kts | 343° |
| 2026-05-04 12:49 | 53.06548 | -5.76453 | 14044 ft | 349 kts | 343° |
| 2026-05-04 12:49 | 53.08798 | -5.77633 | 13553 ft | 345 kts | 343° |
| 2026-05-04 12:49 | 53.11107 | -5.78919 | 13024 ft | 340 kts | 339° |
| 2026-05-04 12:50 | 53.13119 | -5.80913 | 12568 ft | 335 kts | 319° |
| 2026-05-04 12:50 | 53.14559 | -5.83921 | 12113 ft | 333 kts | 299° |
| 2026-05-04 12:50 | 53.15547 | -5.87393 | 11631 ft | 331 kts | 294° |
| 2026-05-04 12:50 | 53.16445 | -5.90911 | 11155 ft | 329 kts | 294° |
| 2026-05-04 12:51 | 53.17338 | -5.94414 | 10743 ft | 325 kts | 294° |
| 2026-05-04 12:51 | 53.18210 | -5.97795 | 10590 ft | 316 kts | 294° |
| 2026-05-04 12:51 | 53.19099 | -6.01208 | 10350 ft | 326 kts | 294° |
| 2026-05-04 12:51 | 53.20006 | -6.04701 | 10119 ft | 325 kts | 294° |
| 2026-05-04 12:52 | 53.20880 | -6.08077 | 10003 ft | 309 kts | 294° |
| 2026-05-04 12:52 | 53.21710 | -6.11295 | 9869 ft | 294 kts | 294° |
| 2026-05-04 12:52 | 53.22499 | -6.14356 | 9767 ft | 282 kts | 294° |
| 2026-05-04 12:52 | 53.23277 | -6.17374 | 9517 ft | 283 kts | 294° |
| 2026-05-04 12:53 | 53.24051 | -6.20380 | 9259 ft | 283 kts | 294° |
| 2026-05-04 12:53 | 53.24829 | -6.23405 | 8990 ft | 282 kts | 294° |
| 2026-05-04 12:53 | 53.25600 | -6.26414 | 8723 ft | 281 kts | 294° |
| 2026-05-04 12:53 | 53.26367 | -6.29408 | 8473 ft | 280 kts | 294° |
| 2026-05-04 12:54 | 53.27129 | -6.32385 | 8207 ft | 279 kts | 294° |
| 2026-05-04 12:54 | 53.27789 | -6.34972 | 7989 ft | 278 kts | 294° |
| 2026-05-04 12:54 | 53.28519 | -6.37834 | 7750 ft | 276 kts | 294° |
| 2026-05-04 12:54 | 53.29269 | -6.40777 | 7492 ft | 274 kts | 294° |
| 2026-05-04 12:55 | 53.30017 | -6.43713 | 7247 ft | 274 kts | 293° |
| 2026-05-04 12:55 | 53.30761 | -6.46641 | 7003 ft | 273 kts | 293° |
| 2026-05-04 12:55 | 53.31493 | -6.49524 | 6766 ft | 272 kts | 293° |
| 2026-05-04 12:55 | 53.32230 | -6.52433 | 6515 ft | 271 kts | 293° |
| 2026-05-04 12:56 | 53.32971 | -6.55362 | 6250 ft | 269 kts | 293° |
| 2026-05-04 12:56 | 53.33699 | -6.58244 | 6014 ft | 268 kts | 293° |
| 2026-05-04 12:56 | 53.34405 | -6.61041 | 5840 ft | 263 kts | 293° |
| 2026-05-04 12:56 | 53.35162 | -6.63861 | 5605 ft | 268 kts | 298° |
| 2026-05-04 12:57 | 53.36244 | -6.66353 | 5273 ft | 266 kts | 316° |
| 2026-05-04 12:57 | 53.37738 | -6.68086 | 5035 ft | 261 kts | 336° |
| 2026-05-04 12:57 | 53.39475 | -6.68913 | 5008 ft | 260 kts | 354° |
| 2026-05-04 12:57 | 53.41283 | -6.68907 | 5008 ft | 260 kts | 5° |
| 2026-05-04 12:58 | 53.43076 | -6.68623 | 4976 ft | 254 kts | 6° |
| 2026-05-04 12:58 | 53.44649 | -6.67784 | 4976 ft | 236 kts | 35° |
| 2026-05-04 12:58 | 53.45574 | -6.65671 | 4907 ft | 223 kts | 70° |
| 2026-05-04 12:58 | 53.45735 | -6.63137 | 4699 ft | 218 kts | 94° |
| 2026-05-04 12:59 | 53.45537 | -6.60608 | 4381 ft | 218 kts | 97° |
| 2026-05-04 12:59 | 53.45358 | -6.58079 | 4023 ft | 218 kts | 92° |
| 2026-05-04 12:59 | 53.45241 | -6.55590 | 3671 ft | 208 kts | 92° |
| 2026-05-04 12:59 | 53.45110 | -6.53241 | 3314 ft | 196 kts | 92° |
| 2026-05-04 13:00 | 53.44985 | -6.51022 | 2982 ft | 186 kts | 92° |
| 2026-05-04 13:00 | 53.44871 | -6.48930 | 2740 ft | 175 kts | 92° |
| 2026-05-04 13:00 | 53.44763 | -6.46969 | 2491 ft | 162 kts | 92° |
| 2026-05-04 13:00 | 53.44663 | -6.45156 | 2279 ft | 152 kts | 92° |
| 2026-05-04 13:01 | 53.44568 | -6.43433 | 2064 ft | 143 kts | 93° |
| 2026-05-04 13:01 | 53.44479 | -6.41831 | 1881 ft | 134 kts | 92° |
| 2026-05-04 13:01 | 53.44394 | -6.40300 | 1719 ft | 131 kts | 92° |
| 2026-05-04 13:01 | 53.44311 | -6.38778 | 1530 ft | 131 kts | 92° |
| 2026-05-04 13:02 | 53.44226 | -6.37262 | 1341 ft | 130 kts | 91° |
| 2026-05-04 13:02 | 53.44143 | -6.35755 | 1161 ft | 130 kts | 92° |
| 2026-05-04 13:02 | 53.44062 | -6.34236 | 972 ft | 131 kts | 91° |
| 2026-05-04 13:02 | 53.43985 | -6.32720 | 799 ft | 131 kts | 92° |
| 2026-05-04 13:03 | 53.43895 | -6.31185 | 631 ft | 132 kts | 92° |
| 2026-05-04 13:03 | 53.43811 | -6.29655 | 452 ft | 131 kts | 92° |
| 2026-05-04 13:03 | 53.43714 | -6.28135 | 292 ft | 131 kts | 95° |
| 2026-05-04 13:03 | 53.43637 | -6.26646 | 217 ft | 120 kts | 95° |
| 2026-05-04 13:04 | 53.43588 | -6.25757 | 226 ft | 32 kts | 95° |
| 2026-05-04 13:04 | 53.43584 | -6.25656 | 221 ft | 0 kts | 94° |
| 2026-05-04 13:04 | 53.43582 | -6.25629 | 218 ft | 6 kts | 94° |
| 2026-05-04 13:04 | 53.43567 | -6.25417 | 224 ft | 23 kts | 103° |
| 2026-05-04 13:05 | 53.43506 | -6.25169 | 227 ft | 20 kts | 119° |
| 2026-05-04 13:05 | 53.43439 | -6.24984 | 226 ft | 13 kts | 136° |
| 2026-05-04 13:05 | 53.43402 | -6.24991 | 221 ft | 6 kts | 223° |
| 2026-05-04 13:05 | 53.43384 | -6.25068 | 222 ft | 9 kts | 265° |
| 2026-05-04 13:06 | 53.43387 | -6.25196 | 224 ft | 13 kts | 275° |
| 2026-05-04 13:06 | 53.43395 | -6.25342 | 209 ft | 14 kts | 275° |
| 2026-05-04 13:06 | 53.43405 | -6.25518 | 217 ft | 11 kts | 275° |
| 2026-05-04 13:06 | 53.43377 | -6.25641 | 225 ft | 13 kts | 199° |
| 2026-05-04 13:07 | 53.43288 | -6.25601 | 224 ft | 13 kts | 156° |
| 2026-05-04 13:07 | 53.43194 | -6.25532 | 225 ft | 17 kts | 156° |
| 2026-05-04 13:07 | 53.43077 | -6.25446 | 227 ft | 18 kts | 157° |
| 2026-05-04 13:07 | 53.42951 | -6.25356 | 223 ft | 20 kts | 156° |
| 2026-05-04 13:08 | 53.42875 | -6.25301 | 224 ft | 12 kts | 157° |
| 2026-05-04 13:08 | 53.42788 | -6.25238 | 227 ft | 14 kts | 156° |
| 2026-05-04 13:08 | 53.42728 | -6.25215 | 224 ft | 10 kts | 185° |
| 2026-05-04 13:08 | 53.42660 | -6.25293 | 223 ft | 14 kts | 223° |
| 2026-05-04 13:09 | 53.42578 | -6.25427 | 223 ft | 19 kts | 225° |
| 2026-05-04 13:09 | 53.42497 | -6.25567 | 226 ft | 16 kts | 225° |
| 2026-05-04 13:09 | 53.42406 | -6.25721 | 222 ft | 21 kts | 225° |
| 2026-05-04 13:09 | 53.42327 | -6.25856 | 226 ft | 14 kts | 225° |
| 2026-05-04 13:10 | 53.42269 | -6.25963 | 227 ft | 12 kts | 238° |
| 2026-05-04 13:10 | 53.42299 | -6.26062 | 226 ft | 10 kts | 358° |
| 2026-05-04 13:10 | 53.42363 | -6.25987 | 225 ft | 13 kts | 43° |
| 2026-05-04 13:10 | 53.42433 | -6.25884 | 227 ft | 9 kts | 26° |
| 2026-05-04 13:11 | 53.42485 | -6.25905 | 225 ft | 8 kts | 314° |
| 2026-05-04 13:11 | 53.42499 | -6.25997 | 223 ft | 9 kts | 276° |
| 2026-05-04 13:11 | 53.42507 | -6.26113 | 217 ft | 0 kts | 277° |
| 2026-05-04 13:11 | 53.42508 | -6.26122 | 220 ft | 2 kts | 277° |
| 2026-05-04 13:12 | 53.42510 | -6.26157 | 225 ft | 3 kts | 275° |
| 2026-05-04 13:12 | 53.42501 | -6.26181 | 225 ft | 2 kts | 227° |
| 2026-05-04 13:12 | 53.42481 | -6.26189 | 225 ft | 5 kts | 192° |
| 2026-05-04 13:12 | 53.42450 | -6.26194 | 221 ft | 4 kts | 186° |
| 2026-05-04 13:13 | 53.42429 | -6.26198 | 219 ft | 3 kts | 185° |
| 2026-05-04 13:13 | 53.42425 | -6.26198 | 220 ft | 0 kts | 185° |